sensor_id;sensor_type;location;lat;lon;timestamp;pressure;altitude;pressure_sealevel;temperature;humidity
80393;BME280;69719;45.544;10.218;2023-07-02T00:00:19;99260.91;;;24.22;69.82
80393;BME280;69719;45.544;10.218;2023-07-02T00:02:45;99259.81;;;24.23;69.93
80393;BME280;69719;45.544;10.218;2023-07-02T00:05:10;99259.34;;;24.21;69.91
80393;BME280;69719;45.544;10.218;2023-07-02T00:07:36;99259.97;;;24.26;70.05
80393;BME280;69719;45.544;10.218;2023-07-02T00:10:03;99261.00;;;24.34;69.46
80393;BME280;69719;45.544;10.218;2023-07-02T00:12:28;99257.13;;;24.31;69.18
80393;BME280;69719;45.544;10.218;2023-07-02T00:14:54;99256.69;;;24.21;69.61
80393;BME280;69719;45.544;10.218;2023-07-02T00:17:20;99256.69;;;24.21;69.55
80393;BME280;69719;45.544;10.218;2023-07-02T00:19:45;99251.81;;;24.31;69.40
80393;BME280;69719;45.544;10.218;2023-07-02T00:22:11;99246.34;;;24.28;69.41
80393;BME280;69719;45.544;10.218;2023-07-02T00:24:37;99247.16;;;24.20;69.82
80393;BME280;69719;45.544;10.218;2023-07-02T00:27:03;99249.53;;;24.13;70.27
80393;BME280;69719;45.544;10.218;2023-07-02T00:29:29;99245.53;;;24.27;69.54
80393;BME280;69719;45.544;10.218;2023-07-02T00:31:54;99243.22;;;24.26;69.49
80393;BME280;69719;45.544;10.218;2023-07-02T00:34:20;99251.56;;;24.16;69.78
80393;BME280;69719;45.544;10.218;2023-07-02T00:36:45;99250.44;;;24.17;69.73
80393;BME280;69719;45.544;10.218;2023-07-02T00:39:12;99249.25;;;24.06;69.97
80393;BME280;69719;45.544;10.218;2023-07-02T00:41:38;99253.94;;;23.92;70.89
80393;BME280;69719;45.544;10.218;2023-07-02T00:44:03;99250.50;;;23.91;70.59
80393;BME280;69719;45.544;10.218;2023-07-02T00:46:30;99260.19;;;23.96;70.47
80393;BME280;69719;45.544;10.218;2023-07-02T00:48:56;99258.94;;;23.93;70.87
80393;BME280;69719;45.544;10.218;2023-07-02T00:51:26;99260.97;;;23.96;70.54
80393;BME280;69719;45.544;10.218;2023-07-02T00:53:55;99271.97;;;23.77;71.30
80393;BME280;69719;45.544;10.218;2023-07-02T00:56:22;99268.22;;;23.70;71.27
80393;BME280;69719;45.544;10.218;2023-07-02T00:58:48;99273.97;;;23.81;71.00
80393;BME280;69719;45.544;10.218;2023-07-02T01:06:22;99265.84;;;23.86;70.78
80393;BME280;69719;45.544;10.218;2023-07-02T01:08:54;99266.47;;;23.74;71.76
80393;BME280;69719;45.544;10.218;2023-07-02T01:11:23;99259.94;;;23.71;72.08
80393;BME280;69719;45.544;10.218;2023-07-02T01:13:51;99261.81;;;23.62;72.41
80393;BME280;69719;45.544;10.218;2023-07-02T01:16:18;99261.00;;;23.79;72.09
80393;BME280;69719;45.544;10.218;2023-07-02T01:18:44;99257.25;;;23.89;72.27
80393;BME280;69719;45.544;10.218;2023-07-02T01:21:10;99249.75;;;23.91;71.93
80393;BME280;69719;45.544;10.218;2023-07-02T01:23:35;99256.47;;;23.80;72.69
80393;BME280;69719;45.544;10.218;2023-07-02T01:26:01;99251.63;;;23.82;73.54
80393;BME280;69719;45.544;10.218;2023-07-02T01:28:34;99251.78;;;23.76;72.78
80393;BME280;69719;45.544;10.218;2023-07-02T01:31:00;99254.31;;;23.73;73.12
80393;BME280;69719;45.544;10.218;2023-07-02T01:33:26;99255.41;;;23.55;73.97
80393;BME280;69719;45.544;10.218;2023-07-02T01:35:51;99254.47;;;23.51;73.91
80393;BME280;69719;45.544;10.218;2023-07-02T01:38:17;99251.69;;;23.47;74.24
80393;BME280;69719;45.544;10.218;2023-07-02T01:40:42;99253.09;;;23.36;74.95
80393;BME280;69719;45.544;10.218;2023-07-02T01:43:08;99251.69;;;23.47;74.58
80393;BME280;69719;45.544;10.218;2023-07-02T01:45:33;99250.44;;;23.45;74.62
80393;BME280;69719;45.544;10.218;2023-07-02T01:47:59;99253.53;;;23.13;75.79
80393;BME280;69719;45.544;10.218;2023-07-02T01:50:24;99251.34;;;22.97;76.57
80393;BME280;69719;45.544;10.218;2023-07-02T01:52:50;99251.34;;;23.15;76.07
80393;BME280;69719;45.544;10.218;2023-07-02T01:55:15;99248.69;;;23.23;75.80
80393;BME280;69719;45.544;10.218;2023-07-02T01:57:42;99253.38;;;23.00;74.88
80393;BME280;69719;45.544;10.218;2023-07-02T02:00:08;99247.59;;;22.98;74.21
80393;BME280;69719;45.544;10.218;2023-07-02T02:02:34;99246.50;;;23.08;74.95
80393;BME280;69719;45.544;10.218;2023-07-02T02:05:00;99256.81;;;23.18;74.34
80393;BME280;69719;45.544;10.218;2023-07-02T02:07:26;99267.13;;;23.11;74.52
80393;BME280;69719;45.544;10.218;2023-07-02T02:09:51;99269.31;;;23.09;74.38
80393;BME280;69719;45.544;10.218;2023-07-02T02:12:17;99273.50;;;23.10;73.97
80393;BME280;69719;45.544;10.218;2023-07-02T02:14:42;99268.66;;;22.95;74.42
80393;BME280;69719;45.544;10.218;2023-07-02T02:17:08;99265.38;;;22.89;74.35
80393;BME280;69719;45.544;10.218;2023-07-02T02:19:33;99259.16;;;22.94;74.23
80393;BME280;69719;45.544;10.218;2023-07-02T02:21:59;99253.06;;;23.11;73.82
80393;BME280;69719;45.544;10.218;2023-07-02T02:24:24;99252.75;;;23.12;73.77
80393;BME280;69719;45.544;10.218;2023-07-02T02:26:50;99259.94;;;23.03;73.98
80393;BME280;69719;45.544;10.218;2023-07-02T02:29:15;99264.75;;;22.92;74.45
80393;BME280;69719;45.544;10.218;2023-07-02T02:31:42;99264.28;;;22.99;74.31
80393;BME280;69719;45.544;10.218;2023-07-02T02:34:08;99265.97;;;22.78;75.17
80393;BME280;69719;45.544;10.218;2023-07-02T02:36:33;99258.47;;;22.71;75.10
80393;BME280;69719;45.544;10.218;2023-07-02T02:38:59;99250.22;;;22.73;75.04
80393;BME280;69719;45.544;10.218;2023-07-02T02:41:24;99260.03;;;22.72;75.23
80393;BME280;69719;45.544;10.218;2023-07-02T02:43:50;99261.13;;;22.80;74.91
80393;BME280;69719;45.544;10.218;2023-07-02T02:46:22;99257.97;;;22.61;75.68
80393;BME280;69719;45.544;10.218;2023-07-02T02:48:48;99260.50;;;22.74;75.09
80393;BME280;69719;45.544;10.218;2023-07-02T02:51:14;99260.81;;;22.73;75.12
80393;BME280;69719;45.544;10.218;2023-07-02T02:53:39;99263.47;;;22.73;75.12
80393;BME280;69719;45.544;10.218;2023-07-02T02:56:05;99266.13;;;22.73;74.97
80393;BME280;69719;45.544;10.218;2023-07-02T02:58:30;99272.50;;;22.72;74.84
80393;BME280;69719;45.544;10.218;2023-07-02T03:00:56;99262.69;;;22.72;74.66
80393;BME280;69719;45.544;10.218;2023-07-02T03:03:22;99263.31;;;22.78;74.66
80393;BME280;69719;45.544;10.218;2023-07-02T03:05:50;99269.19;;;22.58;75.32
80393;BME280;69719;45.544;10.218;2023-07-02T03:08:15;99267.88;;;22.47;75.80
80393;BME280;69719;45.544;10.218;2023-07-02T03:10:41;99266.66;;;22.53;75.54
80393;BME280;69719;45.544;10.218;2023-07-02T03:13:07;99268.22;;;22.54;75.64
80393;BME280;69719;45.544;10.218;2023-07-02T03:15:32;99280.50;;;22.50;75.64
80393;BME280;69719;45.544;10.218;2023-07-02T03:17:58;99281.19;;;22.55;75.26
80393;BME280;69719;45.544;10.218;2023-07-02T03:20:24;99275.94;;;22.64;74.65
80393;BME280;69719;45.544;10.218;2023-07-02T03:22:49;99271.53;;;22.59;74.84
80393;BME280;69719;45.544;10.218;2023-07-02T03:25:15;99273.28;;;22.64;74.78
80393;BME280;69719;45.544;10.218;2023-07-02T03:27:41;99279.44;;;22.51;74.97
80393;BME280;69719;45.544;10.218;2023-07-02T03:30:07;99285.09;;;22.58;74.84
80393;BME280;69719;45.544;10.218;2023-07-02T03:32:33;99280.38;;;22.55;74.88
80393;BME280;69719;45.544;10.218;2023-07-02T03:34:58;99284.41;;;22.44;75.37
80393;BME280;69719;45.544;10.218;2023-07-02T03:37:24;99286.25;;;22.35;75.80
80393;BME280;69719;45.544;10.218;2023-07-02T03:39:49;99288.75;;;22.40;75.58
80393;BME280;69719;45.544;10.218;2023-07-02T03:42:15;99287.16;;;22.30;76.15
80393;BME280;69719;45.544;10.218;2023-07-02T03:44:41;99287.38;;;22.42;75.80
80393;BME280;69719;45.544;10.218;2023-07-02T03:47:06;99294.53;;;22.42;75.73
80393;BME280;69719;45.544;10.218;2023-07-02T03:49:33;99287.69;;;22.41;75.76
80393;BME280;69719;45.544;10.218;2023-07-02T03:51:59;99295.41;;;22.28;76.36
80393;BME280;69719;45.544;10.218;2023-07-02T03:54:24;99292.66;;;22.42;75.66
80393;BME280;69719;45.544;10.218;2023-07-02T03:56:50;99300.66;;;22.51;75.26
80393;BME280;69719;45.544;10.218;2023-07-02T03:59:15;99309.69;;;22.50;75.42
80393;BME280;69719;45.544;10.218;2023-07-02T04:01:41;99301.28;;;22.56;75.24
80393;BME280;69719;45.544;10.218;2023-07-02T04:04:06;99292.38;;;22.52;75.26
80393;BME280;69719;45.544;10.218;2023-07-02T04:06:32;99297.50;;;22.40;75.77
80393;BME280;69719;45.544;10.218;2023-07-02T04:08:59;99296.53;;;22.36;75.88
80393;BME280;69719;45.544;10.218;2023-07-02T04:11:24;99297.19;;;22.42;75.77
80393;BME280;69719;45.544;10.218;2023-07-02T04:13:50;99303.41;;;22.37;76.06
80393;BME280;69719;45.544;10.218;2023-07-02T04:16:15;99300.59;;;22.34;76.05
80393;BME280;69719;45.544;10.218;2023-07-02T04:18:41;99311.97;;;22.34;75.90
80393;BME280;69719;45.544;10.218;2023-07-02T04:21:06;99306.16;;;22.23;76.35
80393;BME280;69719;45.544;10.218;2023-07-02T04:23:32;99310.31;;;22.47;75.48
80393;BME280;69719;45.544;10.218;2023-07-02T04:25:57;99314.91;;;22.33;76.01
80393;BME280;69719;45.544;10.218;2023-07-02T04:28:23;99314.59;;;22.25;76.31
80393;BME280;69719;45.544;10.218;2023-07-02T04:30:48;99317.41;;;22.29;76.27
80393;BME280;69719;45.544;10.218;2023-07-02T04:33:16;99319.66;;;22.13;76.95
80393;BME280;69719;45.544;10.218;2023-07-02T04:35:43;99315.44;;;22.12;77.00
80393;BME280;69719;45.544;10.218;2023-07-02T04:38:08;99323.50;;;22.30;76.40
80393;BME280;69719;45.544;10.218;2023-07-02T04:40:34;99319.38;;;22.15;76.81
80393;BME280;69719;45.544;10.218;2023-07-02T04:42:59;99335.25;;;22.15;76.60
80393;BME280;69719;45.544;10.218;2023-07-02T04:45:26;99338.56;;;22.20;76.41
80393;BME280;69719;45.544;10.218;2023-07-02T04:47:57;99333.38;;;22.15;76.15
80393;BME280;69719;45.544;10.218;2023-07-02T04:50:22;99341.47;;;22.10;76.29
80393;BME280;69719;45.544;10.218;2023-07-02T04:52:48;99327.94;;;22.20;75.59
80393;BME280;69719;45.544;10.218;2023-07-02T04:55:13;99338.50;;;22.12;76.09
80393;BME280;69719;45.544;10.218;2023-07-02T04:57:39;99327.94;;;22.20;75.74
80393;BME280;69719;45.544;10.218;2023-07-02T05:00:05;99337.81;;;22.28;75.36
80393;BME280;69719;45.544;10.218;2023-07-02T05:02:34;99335.16;;;22.28;75.27
80393;BME280;69719;45.544;10.218;2023-07-02T05:04:59;99332.75;;;22.41;75.09
80393;BME280;69719;45.544;10.218;2023-07-02T05:07:25;99327.03;;;22.56;74.51
80393;BME280;69719;45.544;10.218;2023-07-02T05:09:50;99336.34;;;22.45;74.99
80393;BME280;69719;45.544;10.218;2023-07-02T05:12:18;99339.59;;;22.42;75.10
80393;BME280;69719;45.544;10.218;2023-07-02T05:14:44;99334.22;;;22.55;74.69
80393;BME280;69719;45.544;10.218;2023-07-02T05:17:10;99327.25;;;22.68;74.70
80393;BME280;69719;45.544;10.218;2023-07-02T05:19:35;99340.22;;;22.69;74.67
80393;BME280;69719;45.544;10.218;2023-07-02T05:22:00;99337.28;;;22.71;74.69
80393;BME280;69719;45.544;10.218;2023-07-02T05:24:26;99337.78;;;22.81;74.10
80393;BME280;69719;45.544;10.218;2023-07-02T05:26:51;99330.22;;;22.66;74.69
80393;BME280;69719;45.544;10.218;2023-07-02T05:29:17;99329.56;;;22.61;74.37
80393;BME280;69719;45.544;10.218;2023-07-02T05:31:43;99326.72;;;22.88;73.09
80393;BME280;69719;45.544;10.218;2023-07-02T05:34:08;99324.22;;;22.91;73.30
80393;BME280;69719;45.544;10.218;2023-07-02T05:36:34;99336.97;;;22.81;72.82
80393;BME280;69719;45.544;10.218;2023-07-02T05:39:00;99340.09;;;22.83;72.63
80393;BME280;69719;45.544;10.218;2023-07-02T05:41:25;99338.56;;;22.90;72.70
80393;BME280;69719;45.544;10.218;2023-07-02T05:43:58;99339.06;;;23.01;72.38
80393;BME280;69719;45.544;10.218;2023-07-02T05:46:24;99342.84;;;23.17;72.21
80393;BME280;69719;45.544;10.218;2023-07-02T05:48:50;99334.28;;;23.20;72.14
80393;BME280;69719;45.544;10.218;2023-07-02T05:51:23;99335.97;;;23.25;71.73
80393;BME280;69719;45.544;10.218;2023-07-02T05:53:49;99343.03;;;23.38;71.43
80393;BME280;69719;45.544;10.218;2023-07-02T05:56:14;99342.13;;;23.42;71.19
80393;BME280;69719;45.544;10.218;2023-07-02T05:58:40;99346.34;;;23.43;71.26
80393;BME280;69719;45.544;10.218;2023-07-02T06:01:05;99346.03;;;23.45;70.54
80393;BME280;69719;45.544;10.218;2023-07-02T06:03:32;99351.34;;;23.53;70.82
80393;BME280;69719;45.544;10.218;2023-07-02T06:05:57;99349.31;;;23.59;70.16
80393;BME280;69719;45.544;10.218;2023-07-02T06:08:23;99359.16;;;23.50;70.53
80393;BME280;69719;45.544;10.218;2023-07-02T06:10:49;99355.72;;;23.41;71.08
80393;BME280;69719;45.544;10.218;2023-07-02T06:13:14;99357.13;;;23.38;70.96
80393;BME280;69719;45.544;10.218;2023-07-02T06:15:40;99360.25;;;23.57;70.50
80393;BME280;69719;45.544;10.218;2023-07-02T06:18:06;99358.69;;;23.56;70.21
80393;BME280;69719;45.544;10.218;2023-07-02T06:20:31;99367.41;;;23.48;70.47
80393;BME280;69719;45.544;10.218;2023-07-02T06:22:57;99365.56;;;23.74;69.45
80393;BME280;69719;45.544;10.218;2023-07-02T06:25:22;99374.31;;;23.84;69.02
80393;BME280;69719;45.544;10.218;2023-07-02T06:27:48;99379.97;;;23.82;69.49
80393;BME280;69719;45.544;10.218;2023-07-02T06:30:13;99370.72;;;23.80;68.97
80393;BME280;69719;45.544;10.218;2023-07-02T06:32:39;99371.03;;;23.78;68.81
80393;BME280;69719;45.544;10.218;2023-07-02T06:35:05;99385.41;;;24.03;67.96
80393;BME280;69719;45.544;10.218;2023-07-02T06:37:32;99383.38;;;24.17;68.02
80393;BME280;69719;45.544;10.218;2023-07-02T06:39:57;99392.06;;;24.51;67.24
80393;BME280;69719;45.544;10.218;2023-07-02T06:42:24;99392.88;;;24.35;67.09
80393;BME280;69719;45.544;10.218;2023-07-02T06:44:50;99391.63;;;24.41;66.81
80393;BME280;69719;45.544;10.218;2023-07-02T06:47:16;99386.28;;;24.49;66.88
80393;BME280;69719;45.544;10.218;2023-07-02T06:49:41;99403.44;;;24.69;65.96
80393;BME280;69719;45.544;10.218;2023-07-02T06:52:07;99393.59;;;24.61;66.99
80393;BME280;69719;45.544;10.218;2023-07-02T06:54:32;99385.34;;;24.45;66.83
80393;BME280;69719;45.544;10.218;2023-07-02T06:56:58;99389.06;;;24.53;66.99
80393;BME280;69719;45.544;10.218;2023-07-02T06:59:23;99387.69;;;24.47;66.81
80393;BME280;69719;45.544;10.218;2023-07-02T07:01:50;99381.38;;;24.60;66.39
80393;BME280;69719;45.544;10.218;2023-07-02T07:04:16;99386.09;;;24.63;66.32
80393;BME280;69719;45.544;10.218;2023-07-02T07:06:42;99394.03;;;24.72;66.06
80393;BME280;69719;45.544;10.218;2023-07-02T07:09:07;99398.09;;;24.69;66.36
80393;BME280;69719;45.544;10.218;2023-07-02T07:11:33;99395.38;;;24.95;65.69
80393;BME280;69719;45.544;10.218;2023-07-02T07:13:58;99394.44;;;25.20;64.89
80393;BME280;69719;45.544;10.218;2023-07-02T07:16:24;99387.44;;;25.45;64.25
80393;BME280;69719;45.544;10.218;2023-07-02T07:18:49;99384.09;;;25.48;64.29
80393;BME280;69719;45.544;10.218;2023-07-02T07:21:15;99394.13;;;25.51;64.15
80393;BME280;69719;45.544;10.218;2023-07-02T07:23:40;99382.63;;;25.59;64.22
80393;BME280;69719;45.544;10.218;2023-07-02T07:26:06;99393.66;;;25.19;65.26
80393;BME280;69719;45.544;10.218;2023-07-02T07:28:31;99381.00;;;25.46;65.21
80393;BME280;69719;45.544;10.218;2023-07-02T07:30:57;99390.22;;;25.48;66.79
80393;BME280;69719;45.544;10.218;2023-07-02T07:33:22;99390.19;;;25.27;67.83
80393;BME280;69719;45.544;10.218;2023-07-02T07:35:48;99384.19;;;25.60;67.07
80393;BME280;69719;45.544;10.218;2023-07-02T07:38:14;99383.97;;;25.65;67.20
80393;BME280;69719;45.544;10.218;2023-07-02T07:40:43;99384.25;;;25.72;67.02
80393;BME280;69719;45.544;10.218;2023-07-02T07:43:09;99384.50;;;25.79;66.95
80393;BME280;69719;45.544;10.218;2023-07-02T07:45:34;99380.84;;;25.83;66.65
80393;BME280;69719;45.544;10.218;2023-07-02T07:48:00;99382.97;;;25.90;66.88
80393;BME280;69719;45.544;10.218;2023-07-02T07:50:26;99387.56;;;25.89;67.01
80393;BME280;69719;45.544;10.218;2023-07-02T07:52:51;99393.56;;;25.98;66.29
80393;BME280;69719;45.544;10.218;2023-07-02T07:55:17;99393.22;;;25.67;67.37
80393;BME280;69719;45.544;10.218;2023-07-02T07:57:42;99387.88;;;25.67;67.26
80393;BME280;69719;45.544;10.218;2023-07-02T08:00:08;99394.63;;;25.65;67.58
80393;BME280;69719;45.544;10.218;2023-07-02T08:02:38;99398.94;;;25.78;66.98
80393;BME280;69719;45.544;10.218;2023-07-02T08:05:04;99399.94;;;25.85;66.15
80393;BME280;69719;45.544;10.218;2023-07-02T08:07:33;99401.34;;;25.91;66.31
80393;BME280;69719;45.544;10.218;2023-07-02T08:09:59;99403.84;;;25.88;66.42
80393;BME280;69719;45.544;10.218;2023-07-02T08:12:25;99396.22;;;25.98;65.86
80393;BME280;69719;45.544;10.218;2023-07-02T08:14:55;99399.34;;;26.21;64.46
80393;BME280;69719;45.544;10.218;2023-07-02T08:17:21;99400.81;;;26.31;64.67
80393;BME280;69719;45.544;10.218;2023-07-02T08:19:46;99395.66;;;26.14;65.28
80393;BME280;69719;45.544;10.218;2023-07-02T08:22:12;99407.09;;;26.14;65.49
80393;BME280;69719;45.544;10.218;2023-07-02T08:24:38;99406.28;;;26.34;64.92
80393;BME280;69719;45.544;10.218;2023-07-02T08:27:04;99402.75;;;26.42;64.50
80393;BME280;69719;45.544;10.218;2023-07-02T08:29:30;99404.34;;;26.67;63.28
80393;BME280;69719;45.544;10.218;2023-07-02T08:31:56;99403.50;;;26.88;62.98
80393;BME280;69719;45.544;10.218;2023-07-02T08:34:22;99410.50;;;27.04;62.50
80393;BME280;69719;45.544;10.218;2023-07-02T08:36:47;99412.66;;;26.99;62.45
80393;BME280;69719;45.544;10.218;2023-07-02T08:39:13;99407.84;;;26.92;62.31
80393;BME280;69719;45.544;10.218;2023-07-02T08:41:46;99409.28;;;27.38;61.69
80393;BME280;69719;45.544;10.218;2023-07-02T08:44:13;99416.25;;;27.67;60.35
80393;BME280;69719;45.544;10.218;2023-07-02T08:46:39;99414.06;;;27.32;60.53
80393;BME280;69719;45.544;10.218;2023-07-02T08:49:06;99411.47;;;27.60;59.68
80393;BME280;69719;45.544;10.218;2023-07-02T08:51:32;99410.81;;;27.51;60.24
80393;BME280;69719;45.544;10.218;2023-07-02T08:53:58;99410.59;;;27.56;59.94
80393;BME280;69719;45.544;10.218;2023-07-02T08:56:23;99413.38;;;27.99;58.98
80393;BME280;69719;45.544;10.218;2023-07-02T08:58:49;99415.00;;;28.32;57.78
80393;BME280;69719;45.544;10.218;2023-07-02T09:01:15;99416.09;;;28.15;58.17
80393;BME280;69719;45.544;10.218;2023-07-02T09:03:41;99414.84;;;27.85;58.95
80393;BME280;69719;45.544;10.218;2023-07-02T09:06:08;99411.81;;;27.59;59.67
80393;BME280;69719;45.544;10.218;2023-07-02T09:08:34;99416.16;;;27.27;61.19
80393;BME280;69719;45.544;10.218;2023-07-02T09:11:13;99413.53;;;27.39;60.64
80393;BME280;69719;45.544;10.218;2023-07-02T09:13:52;99413.28;;;27.56;59.78
80393;BME280;69719;45.544;10.218;2023-07-02T09:16:31;99414.66;;;27.78;59.39
80393;BME280;69719;45.544;10.218;2023-07-02T09:19:06;99413.84;;;28.17;58.05
80393;BME280;69719;45.544;10.218;2023-07-02T09:26:45;99412.19;;;27.97;57.60
80393;BME280;69719;45.544;10.218;2023-07-02T09:29:12;99416.13;;;27.75;58.06
80393;BME280;69719;45.544;10.218;2023-07-02T09:31:47;99410.56;;;27.68;57.94
80393;BME280;69719;45.544;10.218;2023-07-02T09:34:13;99409.03;;;27.55;58.21
80393;BME280;69719;45.544;10.218;2023-07-02T09:36:39;99409.31;;;27.78;57.62
80393;BME280;69719;45.544;10.218;2023-07-02T09:39:12;99410.19;;;27.82;58.20
80393;BME280;69719;45.544;10.218;2023-07-02T09:41:40;99404.69;;;27.90;58.45
80393;BME280;69719;45.544;10.218;2023-07-02T09:44:07;99411.34;;;27.69;59.10
80393;BME280;69719;45.544;10.218;2023-07-02T09:46:34;99406.84;;;27.45;59.40
80393;BME280;69719;45.544;10.218;2023-07-02T09:49:02;99406.66;;;27.66;59.16
80393;BME280;69719;45.544;10.218;2023-07-02T09:51:28;99409.16;;;27.98;58.24
80393;BME280;69719;45.544;10.218;2023-07-02T09:53:54;99403.81;;;27.98;57.23
80393;BME280;69719;45.544;10.218;2023-07-02T09:56:20;99403.00;;;28.25;56.27
80393;BME280;69719;45.544;10.218;2023-07-02T09:58:46;99404.25;;;28.44;56.06
80393;BME280;69719;45.544;10.218;2023-07-02T10:01:12;99401.31;;;27.66;58.19
80393;BME280;69719;45.544;10.218;2023-07-02T10:03:37;99397.13;;;27.52;58.06
80393;BME280;69719;45.544;10.218;2023-07-02T10:06:06;99390.31;;;28.22;56.87
80393;BME280;69719;45.544;10.218;2023-07-02T10:08:32;99398.59;;;28.61;55.51
80393;BME280;69719;45.544;10.218;2023-07-02T10:11:12;99393.75;;;28.82;54.93
80393;BME280;69719;45.544;10.218;2023-07-02T10:13:40;99397.84;;;29.11;53.36
80393;BME280;69719;45.544;10.218;2023-07-02T10:16:07;99401.00;;;28.66;54.79
80393;BME280;69719;45.544;10.218;2023-07-02T10:18:32;99392.50;;;27.77;56.48
80393;BME280;69719;45.544;10.218;2023-07-02T10:20:58;99394.06;;;28.06;56.65
80393;BME280;69719;45.544;10.218;2023-07-02T10:23:34;99390.31;;;28.22;55.74
80393;BME280;69719;45.544;10.218;2023-07-02T10:26:17;99397.31;;;27.99;56.76
80393;BME280;69719;45.544;10.218;2023-07-02T10:28:58;99389.25;;;28.11;56.86
80393;BME280;69719;45.544;10.218;2023-07-02T10:31:24;99387.25;;;28.08;56.95
80393;BME280;69719;45.544;10.218;2023-07-02T10:33:50;99396.69;;;28.77;55.51
80393;BME280;69719;45.544;10.218;2023-07-02T10:36:23;99395.03;;;28.72;54.71
80393;BME280;69719;45.544;10.218;2023-07-02T10:38:50;99394.44;;;28.79;55.12
80393;BME280;69719;45.544;10.218;2023-07-02T10:41:29;99399.88;;;28.82;54.49
80393;BME280;69719;45.544;10.218;2023-07-02T10:44:06;99390.16;;;29.25;53.60
80393;BME280;69719;45.544;10.218;2023-07-02T10:46:31;99387.94;;;29.46;52.89
80393;BME280;69719;45.544;10.218;2023-07-02T10:48:57;99386.09;;;29.15;53.78
80393;BME280;69719;45.544;10.218;2023-07-02T10:51:23;99388.28;;;28.94;54.49
80393;BME280;69719;45.544;10.218;2023-07-02T10:53:59;99388.31;;;28.78;54.38
80393;BME280;69719;45.544;10.218;2023-07-02T10:56:26;99389.53;;;28.65;53.55
80393;BME280;69719;45.544;10.218;2023-07-02T10:58:53;99389.22;;;29.17;52.09
80393;BME280;69719;45.544;10.218;2023-07-02T11:01:23;99385.91;;;29.58;51.36
80393;BME280;69719;45.544;10.218;2023-07-02T11:03:58;99376.59;;;29.71;51.32
80393;BME280;69719;45.544;10.218;2023-07-02T11:06:25;99378.84;;;29.69;50.95
80393;BME280;69719;45.544;10.218;2023-07-02T11:08:51;99377.53;;;29.79;49.51
80393;BME280;69719;45.544;10.218;2023-07-02T11:11:17;99373.94;;;29.37;51.42
80393;BME280;69719;45.544;10.218;2023-07-02T11:13:47;99378.06;;;29.69;50.42
80393;BME280;69719;45.544;10.218;2023-07-02T11:16:21;99369.97;;;29.65;50.39
80393;BME280;69719;45.544;10.218;2023-07-02T11:18:50;99372.53;;;29.24;50.49
80393;BME280;69719;45.544;10.218;2023-07-02T11:21:15;99371.09;;;28.95;51.77
80393;BME280;69719;45.544;10.218;2023-07-02T11:23:41;99376.16;;;29.00;52.37
80393;BME280;69719;45.544;10.218;2023-07-02T11:26:08;99374.75;;;29.37;51.52
80393;BME280;69719;45.544;10.218;2023-07-02T11:28:33;99373.34;;;28.93;51.89
80393;BME280;69719;45.544;10.218;2023-07-02T11:31:02;99374.56;;;28.80;52.66
80393;BME280;69719;45.544;10.218;2023-07-02T11:36:00;99372.22;;;29.44;51.58
80393;BME280;69719;45.544;10.218;2023-07-02T11:38:26;99366.56;;;29.49;50.77
80393;BME280;69719;45.544;10.218;2023-07-02T11:40:51;99363.75;;;29.42;51.24
80393;BME280;69719;45.544;10.218;2023-07-02T11:43:17;99364.16;;;28.94;52.82
80393;BME280;69719;45.544;10.218;2023-07-02T11:45:43;99361.47;;;29.10;52.38
80393;BME280;69719;45.544;10.218;2023-07-02T11:48:09;99359.75;;;29.36;51.06
80393;BME280;69719;45.544;10.218;2023-07-02T11:50:34;99371.59;;;28.85;52.52
80393;BME280;69719;45.544;10.218;2023-07-02T11:53:00;99359.84;;;28.89;52.37
80393;BME280;69719;45.544;10.218;2023-07-02T11:55:25;99362.97;;;29.42;50.58
80393;BME280;69719;45.544;10.218;2023-07-02T11:57:51;99361.13;;;29.65;50.21
80393;BME280;69719;45.544;10.218;2023-07-02T12:00:17;99358.84;;;29.13;51.71
80393;BME280;69719;45.544;10.218;2023-07-02T12:02:42;99357.34;;;29.66;50.86
80393;BME280;69719;45.544;10.218;2023-07-02T12:05:08;99348.66;;;29.72;49.78
80393;BME280;69719;45.544;10.218;2023-07-02T12:07:34;99353.88;;;29.65;50.33
80393;BME280;69719;45.544;10.218;2023-07-02T12:10:00;99351.53;;;30.02;49.72
80393;BME280;69719;45.544;10.218;2023-07-02T12:12:25;99358.00;;;29.79;49.79
80393;BME280;69719;45.544;10.218;2023-07-02T12:14:51;99352.91;;;29.73;50.24
80393;BME280;69719;45.544;10.218;2023-07-02T12:17:16;99358.66;;;29.37;50.18
80393;BME280;69719;45.544;10.218;2023-07-02T12:19:42;99365.84;;;29.33;50.29
80393;BME280;69719;45.544;10.218;2023-07-02T12:22:07;99363.97;;;29.53;50.15
80393;BME280;69719;45.544;10.218;2023-07-02T12:24:33;99365.44;;;29.50;50.09
80393;BME280;69719;45.544;10.218;2023-07-02T12:26:58;99358.22;;;29.35;50.23
80393;BME280;69719;45.544;10.218;2023-07-02T12:29:24;99357.94;;;29.21;50.59
80393;BME280;69719;45.544;10.218;2023-07-02T12:31:50;99359.22;;;29.46;49.94
80393;BME280;69719;45.544;10.218;2023-07-02T12:34:15;99360.06;;;29.50;49.90
80393;BME280;69719;45.544;10.218;2023-07-02T12:36:41;99358.91;;;29.32;50.03
80393;BME280;69719;45.544;10.218;2023-07-02T12:39:06;99361.50;;;29.44;49.99
80393;BME280;69719;45.544;10.218;2023-07-02T12:41:33;99346.13;;;29.80;48.97
80393;BME280;69719;45.544;10.218;2023-07-02T12:43:59;99358.31;;;30.15;48.30
80393;BME280;69719;45.544;10.218;2023-07-02T12:46:24;99357.19;;;29.97;48.71
80393;BME280;69719;45.544;10.218;2023-07-02T12:48:50;99349.09;;;29.75;47.06
80393;BME280;69719;45.544;10.218;2023-07-02T12:51:15;99359.34;;;29.53;47.29
80393;BME280;69719;45.544;10.218;2023-07-02T12:53:41;99355.31;;;29.79;47.00
80393;BME280;69719;45.544;10.218;2023-07-02T12:56:06;99356.53;;;30.04;45.93
80393;BME280;69719;45.544;10.218;2023-07-02T12:58:32;99355.94;;;30.14;45.31